createdAt,value
2022-08-15T00:02:34.442Z,4.68
2022-08-15T00:05:08.351Z,4.85
2022-08-15T00:07:45.913Z,4.71
2022-08-15T00:11:01.209Z,4.55
2022-08-15T00:13:14.485Z,4.48
2022-08-15T00:15:43.866Z,4.33
2022-08-15T00:18:10.786Z,4.32
2022-08-15T00:20:37.224Z,4.58
2022-08-15T00:23:05.913Z,4.46
2022-08-15T00:25:35.637Z,4.17
2022-08-15T00:28:03.453Z,4.35
2022-08-15T00:30:50.728Z,4.27
2022-08-15T00:33:21.380Z,4.45
2022-08-15T00:36:02.918Z,4.48
2022-08-15T00:38:38.898Z,4.41
2022-08-15T00:41:06.912Z,4.46
2022-08-15T00:43:36.954Z,4.70
2022-08-15T00:46:03.676Z,4.40
2022-08-15T00:48:40.357Z,4.72
2022-08-15T00:51:09.007Z,4.76
2022-08-15T00:53:35.672Z,4.76
2022-08-15T00:56:02.164Z,4.85
2022-08-15T00:58:34.240Z,4.68
2022-08-15T01:01:12.723Z,4.60
2022-08-15T01:03:52.805Z,4.40
2022-08-15T01:06:22.376Z,4.74
2022-08-15T01:08:57.373Z,4.72
2022-08-15T01:11:24.206Z,4.85
2022-08-15T01:14:05.191Z,4.41
2022-08-15T01:16:46.514Z,5.12
2022-08-15T01:19:13.700Z,4.59
2022-08-15T01:21:43.094Z,4.86
2022-08-15T01:24:15.165Z,4.89
2022-08-15T01:26:45.806Z,4.92
2022-08-15T01:29:13.014Z,4.90
2022-08-15T01:31:48.679Z,5.06
2022-08-15T01:34:17.476Z,5.17
2022-08-15T01:36:44.940Z,4.75
2022-08-15T01:39:12.863Z,4.98
2022-08-15T01:41:54.701Z,5.41
2022-08-15T01:44:32.975Z,4.96
2022-08-15T01:47:03.354Z,5.21
2022-08-15T01:49:29.899Z,5.19
2022-08-15T01:51:58.652Z,5.19
2022-08-15T01:54:58.420Z,5.09
2022-08-15T01:57:12.528Z,5.10
2022-08-15T01:59:40.141Z,5.06
2022-08-15T02:02:50.226Z,5.39
2022-08-15T02:04:54.891Z,5.28
2022-08-15T02:07:21.614Z,5.17
2022-08-15T02:09:52.195Z,4.91
2022-08-15T02:13:02.620Z,5.49
2022-08-15T02:15:07.317Z,5.09
2022-08-15T02:17:34.494Z,5.02
2022-08-15T02:20:01.208Z,5.60
2022-08-15T02:22:28.200Z,5.55
2022-08-15T02:24:55.635Z,5.53
2022-08-15T02:27:23.145Z,5.67
2022-08-15T02:29:53.105Z,5.69
2022-08-15T02:32:20.252Z,5.91
2022-08-15T02:34:57.304Z,5.82
2022-08-15T02:37:31.239Z,5.99
2022-08-15T02:40:45.747Z,5.77
2022-08-15T02:42:50.144Z,6.26
2022-08-15T02:45:16.889Z,5.94
2022-08-15T02:47:43.743Z,5.78
2022-08-15T02:50:10.347Z,5.70
2022-08-15T02:52:36.848Z,5.99
2022-08-15T02:55:03.436Z,6.11
2022-08-15T02:57:32.260Z,6.14
2022-08-15T03:00:19.599Z,5.99
2022-08-15T03:02:46.355Z,6.07
2022-08-15T03:05:13.288Z,6.21
2022-08-15T03:07:43.645Z,5.68
2022-08-15T03:10:10.405Z,5.07
2022-08-15T03:12:56.275Z,5.47
2022-08-15T03:15:24.638Z,5.60
2022-08-15T03:17:51.177Z,5.70
2022-08-15T03:20:17.686Z,5.62
2022-08-15T03:22:47.250Z,5.74
2022-08-15T03:25:14.335Z,6.23
2022-08-15T03:27:40.966Z,6.24
2022-08-15T03:30:07.487Z,6.31
2022-08-15T03:32:45.862Z,6.43
2022-08-15T03:35:12.582Z,6.50
2022-08-15T03:37:43.423Z,6.48
2022-08-15T03:40:28.846Z,6.26
2022-08-15T03:43:02.545Z,6.08
2022-08-15T03:45:41.860Z,6.13
2022-08-15T03:48:21.372Z,6.02
2022-08-15T03:50:49.150Z,6.21
2022-08-15T03:53:15.917Z,6.07
2022-08-15T03:55:42.618Z,6.31
2022-08-15T03:58:31.945Z,6.08
2022-08-15T04:00:58.982Z,6.10
2022-08-15T04:03:25.867Z,6.42
2022-08-15T04:05:53.467Z,6.56
2022-08-15T04:09:05.150Z,7.25
2022-08-15T04:11:09.514Z,6.93
2022-08-15T04:13:36.144Z,7.53
2022-08-15T04:17:02.625Z,6.99
2022-08-15T04:18:59.474Z,6.63
2022-08-15T04:21:26.365Z,6.88
2022-08-15T04:23:52.958Z,6.25
2022-08-15T04:26:26.460Z,6.72
2022-08-15T04:28:55.498Z,6.67
2022-08-15T04:31:24.303Z,6.72
2022-08-15T04:34:21.951Z,7.06
2022-08-15T04:36:40.094Z,6.79
2022-08-15T04:39:12.618Z,7.38
2022-08-15T04:41:39.501Z,7.48
2022-08-15T04:44:18.722Z,7.17
2022-08-15T04:46:45.595Z,7.67
2022-08-15T04:49:12.690Z,7.93
2022-08-15T04:51:39.262Z,7.91
2022-08-15T04:54:05.814Z,8.07
2022-08-15T04:56:50.861Z,7.86
2022-08-15T04:59:34.258Z,7.36
2022-08-15T05:02:49.699Z,7.74
2022-08-15T05:04:50.319Z,7.73
2022-08-15T05:07:17.780Z,7.47
2022-08-15T05:09:58.738Z,7.53
2022-08-15T05:12:26.399Z,7.51
2022-08-15T05:15:00.978Z,8.18
2022-08-15T05:17:56.367Z,7.70
2022-08-15T05:20:15.237Z,7.52
2022-08-15T05:22:43.769Z,7.61
2022-08-15T05:25:21.352Z,6.90
2022-08-15T05:27:47.898Z,7.18
2022-08-15T05:30:18.234Z,7.06
2022-08-15T05:32:49.313Z,6.76
2022-08-15T05:35:16.261Z,7.01
2022-08-15T05:37:43.981Z,6.74
2022-08-15T05:40:24.252Z,6.78
2022-08-15T05:42:51.360Z,6.55
2022-08-15T05:45:31.251Z,6.81
2022-08-15T05:48:00.814Z,7.66
2022-08-15T05:50:27.585Z,7.68
2022-08-15T05:52:56.734Z,7.51
2022-08-15T05:55:24.081Z,7.95
2022-08-15T05:57:50.718Z,8.11
2022-08-15T06:00:20.546Z,8.52
2022-08-15T06:02:52.307Z,7.62
2022-08-15T06:05:23.193Z,7.68
2022-08-15T06:08:01.277Z,7.87
2022-08-15T06:10:35.749Z,7.82
2022-08-15T06:13:03.670Z,7.82
2022-08-15T06:15:32.898Z,7.89
2022-08-15T06:17:59.632Z,7.41
2022-08-15T06:20:37.043Z,7.06
2022-08-15T06:23:14.524Z,7.04
2022-08-15T06:25:42.280Z,7.64
2022-08-15T06:28:53.342Z,7.84
2022-08-15T06:30:55.793Z,7.08
2022-08-15T06:33:22.297Z,7.60
2022-08-15T06:35:57.016Z,7.30
2022-08-15T06:38:37.153Z,7.39
2022-08-15T06:41:10.157Z,7.53
2022-08-15T06:43:37.270Z,7.20
2022-08-15T06:46:03.843Z,7.83
2022-08-15T06:48:59.059Z,8.09
2022-08-15T06:51:45.709Z,8.54
2022-08-15T06:54:25.606Z,8.73
2022-08-15T06:57:00.164Z,9.53
2022-08-15T06:59:35.901Z,9.25
2022-08-15T07:02:17.387Z,8.49
2022-08-15T07:04:44.952Z,8.66
2022-08-15T07:07:13.265Z,8.72
2022-08-15T07:09:40.466Z,8.70
2022-08-15T07:12:07.023Z,8.18
2022-08-15T07:14:37.650Z,7.91
2022-08-15T07:17:10.810Z,8.50
2022-08-15T07:19:37.396Z,8.35
2022-08-15T07:22:06.236Z,8.62
2022-08-15T07:24:36.149Z,8.34
2022-08-15T07:27:04.364Z,9.25
2022-08-15T07:29:34.026Z,9.72
2022-08-15T07:32:19.131Z,9.83
2022-08-15T07:34:53.795Z,9.96
2022-08-15T07:37:28.915Z,12.62
2022-08-15T07:40:05.972Z,8.46
2022-08-15T07:42:58.897Z,8.09
2022-08-15T07:45:24.946Z,6.61
2022-08-15T07:47:52.360Z,6.09
2022-08-15T07:50:32.681Z,5.91
2022-08-15T07:53:02.634Z,6.91
2022-08-15T07:56:14.121Z,6.74
2022-08-15T07:58:24.098Z,6.28
2022-08-15T08:01:24.998Z,6.44
2022-08-15T08:03:41.619Z,6.66
2022-08-15T08:06:34.101Z,6.51
2022-08-15T08:09:04.017Z,6.89
2022-08-15T08:11:30.760Z,6.12
2022-08-15T08:13:58.079Z,6.13
2022-08-15T08:16:30.666Z,6.05
2022-08-15T08:19:00.683Z,5.95
2022-08-15T08:21:29.889Z,6.40
2022-08-15T08:23:57.401Z,6.76
2022-08-15T08:26:23.939Z,6.37
2022-08-15T08:28:50.661Z,6.52
2022-08-15T08:31:19.467Z,6.74
2022-08-15T08:33:46.023Z,6.42
2022-08-15T08:36:36.087Z,7.37
2022-08-15T08:39:03.850Z,6.82
2022-08-15T08:41:31.744Z,6.79
2022-08-15T08:43:58.269Z,6.82
2022-08-15T08:46:30.611Z,7.45
2022-08-15T08:51:26.026Z,6.78
2022-08-15T08:53:56.630Z,6.56
2022-08-15T08:56:32.331Z,7.13
2022-08-15T08:59:00.382Z,6.86
2022-08-15T09:01:28.606Z,6.85
2022-08-15T09:03:55.750Z,7.18
2022-08-15T09:06:26.735Z,6.84
2022-08-15T09:08:54.719Z,6.67
2022-08-15T09:11:23.848Z,6.43
2022-08-15T09:13:58.150Z,7.00
2022-08-15T09:16:27.459Z,6.78
2022-08-15T09:18:55.635Z,7.16
2022-08-15T09:21:24.167Z,6.76
2022-08-15T09:23:51.052Z,6.78
2022-08-15T09:26:20.383Z,7.04
2022-08-15T09:28:47.591Z,7.50
2022-08-15T09:31:23.714Z,7.03
2022-08-15T09:33:55.285Z,6.72
2022-08-15T09:36:24.782Z,6.74
2022-08-15T09:38:53.884Z,6.95
2022-08-15T09:41:20.727Z,6.63
2022-08-15T09:43:51.617Z,6.99
2022-08-15T09:46:42.107Z,6.39
2022-08-15T09:49:05.563Z,6.92
2022-08-15T09:51:34.065Z,6.63
2022-08-15T09:54:02.600Z,6.79
2022-08-15T09:56:29.545Z,6.49
2022-08-15T09:58:58.966Z,6.67
2022-08-15T10:01:26.356Z,6.14
2022-08-15T10:03:55.391Z,6.00
2022-08-15T10:06:32.845Z,6.21
2022-08-15T10:09:06.031Z,6.70
2022-08-15T10:11:34.234Z,6.87
2022-08-15T10:14:00.955Z,6.67
2022-08-15T10:16:43.441Z,5.99
2022-08-15T10:19:11.182Z,6.29
2022-08-15T10:21:37.950Z,6.15
2022-08-15T10:24:28.651Z,6.69
2022-08-15T10:26:57.609Z,6.61
2022-08-15T10:29:26.570Z,7.23
2022-08-15T10:31:55.787Z,7.50
2022-08-15T10:34:40.821Z,7.22
2022-08-15T10:37:25.848Z,7.32
2022-08-15T10:39:52.494Z,8.65
2022-08-15T10:42:21.646Z,8.11
2022-08-15T10:44:51.435Z,7.50
2022-08-15T10:47:18.176Z,7.58
2022-08-15T10:49:59.042Z,8.09
2022-08-15T10:52:27.892Z,8.56
2022-08-15T10:54:54.938Z,8.25
2022-08-15T10:57:22.876Z,7.87
2022-08-15T10:59:56.994Z,8.41
2022-08-15T11:02:37.540Z,9.27
2022-08-15T11:05:04.919Z,8.94
2022-08-15T11:07:34.292Z,8.58
2022-08-15T11:10:04.006Z,8.90
2022-08-15T11:12:33.385Z,10.01
2022-08-15T11:15:00.042Z,9.52
2022-08-15T11:17:26.672Z,8.56
2022-08-15T11:20:15.838Z,8.61
2022-08-15T11:22:43.598Z,7.60
2022-08-15T11:25:10.411Z,8.00
2022-08-15T11:27:36.888Z,7.46
2022-08-15T11:30:19.027Z,7.05
2022-08-15T11:32:55.442Z,6.47
2022-08-15T11:35:22.483Z,6.37
2022-08-15T11:37:54.141Z,6.09
2022-08-15T11:40:21.000Z,5.88
2022-08-15T11:42:57.263Z,6.82
2022-08-15T11:45:27.742Z,5.44
2022-08-15T11:47:54.720Z,5.21
2022-08-15T11:50:21.561Z,5.38
2022-08-15T11:52:51.028Z,5.20
2022-08-15T11:55:24.567Z,4.81
2022-08-15T11:57:54.497Z,4.61
2022-08-15T12:00:25.781Z,4.52
2022-08-15T12:03:03.383Z,4.51
2022-08-15T12:06:08.213Z,4.39
2022-08-15T12:08:29.103Z,4.56
2022-08-15T12:10:56.222Z,4.45
2022-08-15T12:13:33.316Z,4.75
2022-08-15T12:16:01.595Z,4.74
2022-08-15T12:18:46.996Z,4.51
2022-08-15T12:21:20.178Z,5.43
2022-08-15T12:23:47.758Z,5.26
2022-08-15T12:26:40.538Z,4.96
2022-08-15T12:29:03.615Z,4.82
2022-08-15T12:31:35.149Z,4.79
2022-08-15T12:34:02.808Z,4.82
2022-08-15T12:37:03.615Z,4.59
2022-08-15T12:39:17.815Z,4.67
2022-08-15T12:42:54.828Z,5.09
2022-08-15T12:44:31.714Z,4.90
2022-08-15T12:46:58.225Z,4.82
2022-08-15T12:49:27.394Z,4.72
2022-08-15T12:52:01.761Z,4.86
2022-08-15T12:54:29.830Z,4.92
2022-08-15T12:57:11.840Z,4.85
2022-08-15T12:59:43.368Z,4.97
2022-08-15T13:02:10.909Z,5.67
2022-08-15T13:04:45.760Z,4.79
2022-08-15T13:07:31.539Z,4.78
2022-08-15T13:09:58.427Z,4.58
2022-08-15T13:12:28.889Z,5.04
2022-08-15T13:14:55.457Z,4.99
2022-08-15T13:17:47.039Z,4.91
2022-08-15T13:20:09.000Z,4.87
2022-08-15T13:22:37.707Z,5.04
2022-08-15T13:25:05.006Z,4.43
2022-08-15T13:27:31.562Z,4.50
2022-08-15T13:29:58.014Z,4.37
2022-08-15T13:32:30.040Z,4.68
2022-08-15T13:34:56.636Z,4.40
2022-08-15T13:37:59.043Z,4.39
2022-08-15T13:40:20.095Z,4.15
2022-08-15T13:42:53.378Z,4.33
2022-08-15T13:45:57.243Z,4.65
2022-08-15T13:48:15.275Z,4.71
2022-08-15T13:50:42.472Z,4.74
2022-08-15T13:53:09.115Z,4.46
2022-08-15T13:55:42.952Z,4.38
2022-08-15T13:58:19.105Z,4.37
2022-08-15T14:00:57.718Z,4.57
2022-08-15T14:03:32.344Z,4.81
2022-08-15T14:06:01.002Z,4.90
2022-08-15T14:09:16.202Z,5.05
2022-08-15T14:11:31.389Z,4.57
2022-08-15T14:14:05.971Z,5.46
2022-08-15T14:16:59.729Z,4.85
2022-08-15T14:20:00.369Z,4.86
2022-08-15T14:22:16.861Z,4.68
2022-08-15T14:24:53.857Z,5.07
2022-08-15T14:27:41.887Z,4.91
2022-08-15T14:30:09.898Z,4.93
2022-08-15T14:32:51.391Z,4.88
2022-08-15T14:35:19.643Z,4.84
2022-08-15T14:40:37.821Z,4.97
2022-08-15T14:43:06.696Z,4.83
2022-08-15T14:46:34.618Z,4.89
2022-08-15T14:48:24.125Z,4.46
2022-08-15T14:51:23.265Z,4.80
2022-08-15T14:53:57.197Z,5.08
2022-08-15T14:56:32.151Z,4.39
2022-08-15T14:59:00.165Z,4.75
2022-08-15T15:01:30.139Z,5.48
2022-08-15T15:04:06.231Z,4.59
2022-08-15T15:06:33.591Z,4.83
2022-08-15T15:09:02.443Z,4.41
2022-08-15T15:11:29.269Z,4.65
2022-08-15T15:13:55.934Z,4.41
2022-08-15T15:16:42.162Z,4.06
2022-08-15T15:19:10.838Z,4.41
2022-08-15T15:21:37.461Z,4.23
2022-08-15T15:24:04.568Z,4.74
2022-08-15T15:26:37.192Z,4.59
2022-08-15T15:29:04.356Z,4.78
2022-08-15T15:31:33.452Z,5.09
2022-08-15T15:34:01.398Z,4.84
2022-08-15T15:36:31.941Z,4.81
2022-08-15T15:39:00.733Z,4.85
2022-08-15T15:41:28.807Z,4.63
2022-08-15T15:43:55.393Z,4.76
2022-08-15T15:46:23.132Z,4.80
2022-08-15T15:49:01.686Z,4.55
2022-08-15T15:51:28.401Z,4.56
2022-08-15T15:54:00.469Z,4.80
2022-08-15T15:56:36.928Z,4.56
2022-08-15T15:59:07.721Z,4.80
2022-08-15T16:02:36.500Z,4.46
2022-08-15T16:04:21.523Z,4.99
2022-08-15T16:07:02.231Z,4.80
2022-08-15T16:09:31.429Z,4.92
2022-08-15T16:12:57.601Z,4.63
2022-08-15T16:14:45.699Z,4.66
2022-08-15T16:17:21.702Z,4.51
2022-08-15T16:19:48.451Z,4.77
2022-08-15T16:22:19.971Z,4.48
2022-08-15T16:24:49.992Z,4.24
2022-08-15T16:27:20.250Z,4.38
2022-08-15T16:29:54.546Z,4.69
2022-08-15T16:32:32.874Z,4.67
2022-08-15T16:34:59.907Z,5.00
2022-08-15T16:37:27.384Z,4.75
2022-08-15T16:40:24.303Z,4.75
2022-08-15T16:42:53.431Z,4.97
2022-08-15T16:45:31.543Z,5.09
2022-08-15T16:48:00.269Z,4.87
2022-08-15T16:50:27.009Z,4.73
2022-08-15T16:52:53.637Z,4.70
2022-08-15T16:55:29.565Z,4.74
2022-08-15T16:57:57.069Z,4.97
2022-08-15T17:00:44.576Z,4.95
2022-08-15T17:03:10.614Z,4.74
2022-08-15T17:05:38.302Z,5.02
2022-08-15T17:08:13.312Z,4.84
2022-08-15T17:10:40.431Z,4.91
2022-08-15T17:13:11.871Z,4.76
2022-08-15T17:15:38.449Z,4.64
2022-08-15T17:18:05.460Z,4.67
2022-08-15T17:20:39.112Z,4.72
2022-08-15T17:23:07.802Z,4.70
2022-08-15T17:25:36.384Z,4.35
2022-08-15T17:28:36.856Z,4.42
2022-08-15T17:30:57.984Z,4.52
2022-08-15T17:33:36.899Z,4.72
2022-08-15T17:36:12.350Z,4.95
2022-08-15T17:38:42.229Z,4.68
2022-08-15T17:41:09.057Z,4.61
2022-08-15T17:43:37.212Z,4.99
2022-08-15T17:46:04.563Z,4.61
2022-08-15T17:48:35.304Z,6.04
2022-08-15T17:51:19.109Z,6.64
2022-08-15T17:53:53.121Z,4.57
2022-08-15T17:56:23.253Z,4.46
2022-08-15T17:58:57.554Z,4.79
2022-08-15T18:01:32.237Z,4.43
2022-08-15T18:03:59.199Z,5.17
2022-08-15T18:06:31.850Z,4.48
2022-08-15T18:08:59.062Z,4.60
2022-08-15T18:11:35.106Z,4.80
2022-08-15T18:14:39.726Z,4.69
2022-08-15T18:16:51.081Z,4.63
2022-08-15T18:19:17.737Z,4.74
2022-08-15T18:21:44.304Z,4.53
2022-08-15T18:24:49.517Z,4.21
2022-08-15T18:27:08.424Z,4.45
2022-08-15T18:29:38.617Z,4.65
2022-08-15T18:32:14.565Z,4.92
2022-08-15T18:34:54.229Z,4.97
2022-08-15T18:37:21.346Z,4.99
2022-08-15T18:39:49.330Z,5.08
2022-08-15T18:42:16.177Z,5.17
2022-08-15T18:44:42.763Z,4.80
2022-08-15T18:47:12.117Z,4.93
2022-08-15T18:49:41.038Z,4.99
2022-08-15T18:52:10.916Z,4.82
2022-08-15T18:54:47.924Z,4.70
2022-08-15T18:57:17.509Z,4.73
2022-08-15T18:59:44.060Z,5.06
2022-08-15T19:02:12.978Z,5.30
2022-08-15T19:04:50.177Z,5.45
2022-08-15T19:07:22.380Z,5.76
2022-08-15T19:09:49.815Z,5.47
2022-08-15T19:12:25.793Z,5.85
2022-08-15T19:14:58.128Z,5.89
2022-08-15T19:17:26.437Z,5.63
2022-08-15T19:19:53.034Z,6.44
2022-08-15T19:22:19.873Z,6.00
2022-08-15T19:24:46.670Z,5.36
2022-08-15T19:27:14.104Z,5.50
2022-08-15T19:29:44.998Z,5.97
2022-08-15T19:32:18.330Z,4.84
2022-08-15T19:34:45.367Z,4.64
2022-08-15T19:37:14.741Z,5.19
2022-08-15T19:39:51.627Z,5.61
2022-08-15T19:42:18.949Z,5.79
2022-08-15T19:44:58.985Z,5.54
2022-08-15T19:47:26.028Z,5.40
2022-08-15T19:50:05.565Z,5.41
2022-08-15T19:52:43.949Z,5.23
2022-08-15T19:55:38.224Z,5.31
2022-08-15T19:58:09.319Z,5.17
2022-08-15T20:00:45.088Z,4.92
2022-08-15T20:03:11.642Z,5.01
2022-08-15T20:06:06.864Z,5.12
2022-08-15T20:08:35.885Z,5.15
2022-08-15T20:11:02.924Z,5.68
2022-08-15T20:13:29.807Z,5.88
2022-08-15T20:16:07.649Z,4.92
2022-08-15T20:18:34.235Z,4.79
2022-08-15T20:21:01.750Z,4.75
2022-08-15T20:23:40.737Z,5.01
2022-08-15T20:26:10.361Z,5.09
2022-08-15T20:28:38.883Z,5.13
2022-08-15T20:31:05.522Z,4.82
2022-08-15T20:33:35.123Z,5.03
2022-08-15T20:36:02.109Z,4.87
2022-08-15T20:38:29.955Z,4.76
2022-08-15T20:40:56.788Z,4.73
2022-08-15T20:43:23.582Z,4.77
2022-08-15T20:46:00.135Z,4.54
2022-08-15T20:48:41.713Z,4.47
2022-08-15T20:51:13.207Z,4.67
2022-08-15T20:53:41.782Z,5.04
2022-08-15T20:56:34.059Z,4.74
2022-08-15T20:59:02.157Z,4.71
2022-08-15T21:01:33.218Z,4.41
2022-08-15T21:04:04.331Z,4.48
2022-08-15T21:06:37.939Z,4.94
2022-08-15T21:09:05.461Z,4.82
2022-08-15T21:11:42.551Z,4.45
2022-08-15T21:15:07.771Z,4.92
2022-08-15T21:16:56.607Z,5.38
2022-08-15T21:19:24.162Z,5.11
2022-08-15T21:21:50.978Z,5.02
2022-08-15T21:24:17.958Z,5.32
2022-08-15T21:26:44.955Z,5.31
2022-08-15T21:29:18.281Z,5.14
2022-08-15T21:31:51.754Z,5.26
2022-08-15T21:34:32.892Z,4.99
2022-08-15T21:37:00.300Z,4.85
2022-08-15T21:39:28.067Z,5.09
2022-08-15T21:42:01.502Z,4.98
2022-08-15T21:44:31.001Z,4.98
2022-08-15T21:46:58.508Z,5.10
2022-08-15T21:49:25.329Z,5.12
2022-08-15T21:52:03.652Z,5.00
2022-08-15T21:54:44.173Z,4.95
2022-08-15T21:57:14.078Z,5.22
2022-08-15T22:00:21.835Z,4.77
2022-08-15T22:02:34.239Z,4.88
2022-08-15T22:05:01.548Z,4.82
2022-08-15T22:07:27.998Z,4.87
2022-08-15T22:10:18.915Z,4.78
2022-08-15T22:12:46.782Z,4.77
2022-08-15T22:15:14.318Z,4.66
2022-08-15T22:17:41.162Z,4.54
2022-08-15T22:20:07.965Z,4.63
2022-08-15T22:22:39.542Z,5.06
2022-08-15T22:25:08.137Z,4.58
2022-08-15T22:27:37.421Z,4.56
2022-08-15T22:30:05.879Z,4.82
2022-08-15T22:32:39.740Z,4.82
2022-08-15T22:35:06.629Z,4.57
2022-08-15T22:37:43.324Z,4.43
2022-08-15T22:40:11.114Z,4.47
2022-08-15T22:42:46.097Z,4.80
2022-08-15T22:45:17.973Z,4.62
2022-08-15T22:47:48.064Z,4.66
2022-08-15T22:50:24.685Z,4.96
2022-08-15T22:52:53.147Z,4.50
2022-08-15T22:55:19.967Z,4.71
2022-08-15T22:58:00.626Z,4.61
2022-08-15T23:00:31.738Z,4.67
2022-08-15T23:03:00.783Z,4.73
2022-08-15T23:05:27.754Z,4.59
2022-08-15T23:07:56.062Z,4.44
2022-08-15T23:10:23.899Z,4.77
2022-08-15T23:12:53.042Z,4.78
2022-08-15T23:15:25.046Z,4.69
2022-08-15T23:17:53.623Z,4.66
2022-08-15T23:20:30.308Z,4.87
2022-08-15T23:22:58.282Z,4.77
2022-08-15T23:25:48.795Z,4.53
2022-08-15T23:28:11.810Z,4.62
2022-08-15T23:30:49.844Z,4.74
2022-08-15T23:33:27.527Z,4.52
2022-08-15T23:35:56.690Z,4.53
2022-08-15T23:38:23.516Z,4.94
2022-08-15T23:40:53.932Z,4.65
2022-08-15T23:43:24.907Z,4.45
2022-08-15T23:45:54.238Z,4.42
2022-08-15T23:48:29.825Z,4.37
2022-08-15T23:50:57.056Z,4.53
2022-08-15T23:53:31.415Z,4.61
2022-08-15T23:55:59.189Z,4.47
2022-08-15T23:58:45.206Z,4.51
